Time;durP1;ratioP1;P1;durP2;ratioP2;P2;SDS_P1;SDS_P2;PMS_P1;PMS_P2;Temp;Humidity;BMP_temperature;BMP_pressure;BME280_temperature;BME280_humidity;BME280_pressure;Samples;Min_cycle;Max_cycle;Signal;HPM_P1;HPM_P2
2023/01/27 00:02:08;;;;;;;1.70;1.52;;;;;;;;;;6341429;22;20182;-62
2023/01/27 00:04:34;;;;;;;2.05;1.67;;;;;;;;;;6340815;22;20170;-63
2023/01/27 00:07:00;;;;;;;1.90;1.48;;;;;;;;;;6341163;22;20154;-63
2023/01/27 00:09:26;;;;;;;1.58;1.48;;;;;;;;;;6341215;22;20434;-62
2023/01/27 00:14:36;;;;;;;2.10;1.70;;;;;;;;;;6342925;22;20173;-63
2023/01/27 00:17:02;;;;;;;2.67;1.40;;;;;;;;;;6342899;22;20146;-62
2023/01/27 00:19:28;;;;;;;2.63;1.40;;;;;;;;;;6343317;22;20146;-63
2023/01/27 00:24:39;;;;;;;1.85;1.30;;;;;;;;;;6342677;22;20248;-63
2023/01/27 00:27:07;;;;;;;1.20;1.10;;;;;;;;;;6342855;22;20221;-63
2023/01/27 00:29:33;;;;;;;1.17;1.00;;;;;;;;;;6342953;22;20443;-63
2023/01/27 00:34:44;;;;;;;1.70;1.40;;;;;;;;;;6342607;22;20205;-63
2023/01/27 00:37:10;;;;;;;1.63;0.98;;;;;;;;;;6342840;22;20158;-63
2023/01/27 00:39:36;;;;;;;1.95;1.23;;;;;;;;;;6342793;22;20221;-62
2023/01/27 00:42:02;;;;;;;2.22;1.23;;;;;;;;;;6343074;22;20556;-63
2023/01/27 00:44:28;;;;;;;2.15;1.30;;;;;;;;;;6342739;22;20145;-62
2023/01/27 00:46:54;;;;;;;3.53;1.40;;;;;;;;;;6342744;22;20139;-63
2023/01/27 00:49:20;;;;;;;3.45;1.58;;;;;;;;;;6342399;22;20455;-62
2023/01/27 00:51:46;;;;;;;2.72;1.42;;;;;;;;;;6342294;22;20486;-63
2023/01/27 00:54:13;;;;;;;2.85;1.17;;;;;;;;;;6342515;22;20166;-63
2023/01/27 00:56:39;;;;;;;2.38;1.17;;;;;;;;;;6342626;22;20153;-63
2023/01/27 00:59:05;;;;;;;3.05;1.20;;;;;;;;;;6342184;22;20213;-63
2023/01/27 01:01:32;;;;;;;2.22;1.20;;;;;;;;;;6342582;22;20139;-64
2023/01/27 01:03:58;;;;;;;2.97;1.10;;;;;;;;;;6342397;22;20149;-63
2023/01/27 01:06:24;;;;;;;2.97;0.80;;;;;;;;;;6342128;22;20178;-62
2023/01/27 01:08:51;;;;;;;2.67;1.00;;;;;;;;;;6342161;22;20145;-62
2023/01/27 01:11:17;;;;;;;2.35;0.95;;;;;;;;;;6343609;22;20139;-63
2023/01/27 01:13:44;;;;;;;1.63;0.73;;;;;;;;;;6342076;22;20145;-63
2023/01/27 01:16:11;;;;;;;1.55;0.70;;;;;;;;;;6342007;22;20623;-64
2023/01/27 01:18:37;;;;;;;2.10;0.70;;;;;;;;;;6342254;22;20181;-62
2023/01/27 01:21:05;;;;;;;4.43;0.80;;;;;;;;;;6342445;22;20154;-64
2023/01/27 01:23:31;;;;;;;3.08;0.65;;;;;;;;;;6341465;22;20165;-62
2023/01/27 01:25:58;;;;;;;5.13;1.20;;;;;;;;;;6342265;22;20178;-63
2023/01/27 01:28:24;;;;;;;1.58;0.60;;;;;;;;;;6343040;22;20138;-64
2023/01/27 01:30:50;;;;;;;1.63;0.80;;;;;;;;;;6342059;22;20142;-64
2023/01/27 01:33:17;;;;;;;2.08;0.60;;;;;;;;;;6341799;22;20146;-64
2023/01/27 01:35:44;;;;;;;1.80;0.77;;;;;;;;;;6342007;22;20143;-64
2023/01/27 01:38:10;;;;;;;3.40;0.60;;;;;;;;;;6342567;22;20147;-60
2023/01/27 01:40:43;;;;;;;2.03;0.68;;;;;;;;;;6342240;22;20143;-63
2023/01/27 01:43:14;;;;;;;1.27;0.60;;;;;;;;;;6342493;22;20138;-63
2023/01/27 01:45:43;;;;;;;1.83;0.60;;;;;;;;;;6342248;22;20505;-62
2023/01/27 01:48:11;;;;;;;2.67;0.80;;;;;;;;;;6342358;22;20149;-62
2023/01/27 01:50:38;;;;;;;2.83;0.63;;;;;;;;;;6342376;22;20204;-63
2023/01/27 01:53:06;;;;;;;2.92;1.08;;;;;;;;;;6342307;22;20142;-64
2023/01/27 01:55:33;;;;;;;3.65;1.00;;;;;;;;;;6342181;22;20225;-64
2023/01/27 01:58:00;;;;;;;2.90;1.00;;;;;;;;;;6342752;22;20150;-62
2023/01/27 02:00:26;;;;;;;2.13;0.80;;;;;;;;;;6342500;22;20224;-62
2023/01/27 02:02:53;;;;;;;4.60;1.00;;;;;;;;;;6342521;22;20203;-63
2023/01/27 02:05:23;;;;;;;2.30;1.00;;;;;;;;;;6342142;22;20212;-62
2023/01/27 02:07:51;;;;;;;8.95;1.10;;;;;;;;;;6342230;22;20153;-61
2023/01/27 02:10:17;;;;;;;3.33;1.00;;;;;;;;;;6341969;22;20164;-63
2023/01/27 02:12:43;;;;;;;1.90;0.88;;;;;;;;;;6341572;22;20146;-63
2023/01/27 02:15:10;;;;;;;2.05;0.63;;;;;;;;;;6341475;22;20236;-63
2023/01/27 02:17:36;;;;;;;1.42;0.82;;;;;;;;;;6342156;22;20157;-62
2023/01/27 02:20:11;;;;;;;1.88;0.77;;;;;;;;;;6342211;22;20195;-63
2023/01/27 02:22:40;;;;;;;1.75;0.50;;;;;;;;;;6341479;22;20161;-62
2023/01/27 02:25:14;;;;;;;1.15;0.55;;;;;;;;;;6341674;22;20170;-62
2023/01/27 02:27:40;;;;;;;1.35;0.45;;;;;;;;;;6342015;22;20125;-62
2023/01/27 02:30:06;;;;;;;2.17;0.80;;;;;;;;;;6341516;22;20213;-64
2023/01/27 02:32:33;;;;;;;1.75;0.50;;;;;;;;;;6341475;22;20138;-62
2023/01/27 02:35:00;;;;;;;2.17;0.60;;;;;;;;;;6341555;22;20142;-62
2023/01/27 02:37:26;;;;;;;2.15;0.43;;;;;;;;;;6341679;22;20143;-64
2023/01/27 02:39:53;;;;;;;0.98;0.63;;;;;;;;;;6364606;22;20597;-64
2023/01/27 02:42:19;;;;;;;3.55;0.80;;;;;;;;;;6366586;22;20130;-64
2023/01/27 02:44:45;;;;;;;3.92;0.73;;;;;;;;;;6362375;22;20205;-63
2023/01/27 02:47:11;;;;;;;5.93;0.70;;;;;;;;;;6353047;22;20142;-64
2023/01/27 02:49:37;;;;;;;1.40;0.75;;;;;;;;;;6350952;22;20165;-63
2023/01/27 02:52:03;;;;;;;3.60;0.77;;;;;;;;;;6347668;22;20145;-64
2023/01/27 02:54:29;;;;;;;2.65;0.73;;;;;;;;;;6346729;22;20146;-64
2023/01/27 02:56:56;;;;;;;2.55;0.68;;;;;;;;;;6342695;22;20142;-63
2023/01/27 02:59:22;;;;;;;3.55;0.60;;;;;;;;;;6341872;22;20142;-63
2023/01/27 03:01:48;;;;;;;1.48;0.68;;;;;;;;;;6342021;22;20138;-64
2023/01/27 03:04:14;;;;;;;2.60;0.80;;;;;;;;;;6341372;22;20547;-64
2023/01/27 03:06:41;;;;;;;2.03;0.80;;;;;;;;;;6341554;22;20226;-63
2023/01/27 03:09:07;;;;;;;3.13;0.80;;;;;;;;;;6341502;22;20193;-64
2023/01/27 03:14:17;;;;;;;3.05;1.02;;;;;;;;;;6341168;22;20137;-64
2023/01/27 03:19:29;;;;;;;2.10;0.80;;;;;;;;;;6341274;22;20195;-63
2023/01/27 03:21:55;;;;;;;3.85;0.93;;;;;;;;;;6341306;22;20192;-63
2023/01/27 03:24:21;;;;;;;2.15;0.60;;;;;;;;;;6341153;22;20150;-63
2023/01/27 03:26:48;;;;;;;2.60;0.85;;;;;;;;;;6341573;22;20142;-63
2023/01/27 03:31:58;;;;;;;2.65;0.85;;;;;;;;;;6341680;22;20168;-64
2023/01/27 03:34:24;;;;;;;4.95;0.80;;;;;;;;;;6340936;22;20141;-64
2023/01/27 03:47:48;;;;;;;1.10;0.60;;;;;;;;;;6343123;22;20137;-64
2023/01/27 03:50:18;;;;;;;3.03;0.75;;;;;;;;;;6342911;22;20142;-63
2023/01/27 03:53:01;;;;;;;3.20;0.77;;;;;;;;;;6343350;22;20146;-64
2023/01/27 03:55:27;;;;;;;4.25;0.90;;;;;;;;;;6343255;22;20126;-62
2023/01/27 03:57:55;;;;;;;1.92;0.70;;;;;;;;;;6343261;22;20146;-63
2023/01/27 04:00:21;;;;;;;2.63;0.82;;;;;;;;;;6342734;22;20583;-64
2023/01/27 04:08:17;;;;;;;1.48;0.65;;;;;;;;;;6343019;22;20545;-64
2023/01/27 04:11:53;;;;;;;2.85;0.95;;;;;;;;;;6343506;22;20173;-63
2023/01/27 04:13:29;;;;;;;1.80;0.60;;;;;;;;;;6342928;22;20164;-64
2023/01/27 04:15:55;;;;;;;3.45;0.70;;;;;;;;;;6342631;22;20146;-63
2023/01/27 04:18:21;;;;;;;2.63;0.80;;;;;;;;;;6343035;22;20203;-64
2023/01/27 04:20:47;;;;;;;5.75;1.42;;;;;;;;;;6341791;22;20157;-63
2023/01/27 04:23:13;;;;;;;3.22;0.73;;;;;;;;;;6342780;22;20157;-63
2023/01/27 04:25:39;;;;;;;1.48;0.43;;;;;;;;;;6342880;22;20443;-63
2023/01/27 04:28:05;;;;;;;0.88;0.70;;;;;;;;;;6342897;22;20415;-63
2023/01/27 04:30:31;;;;;;;0.68;0.50;;;;;;;;;;6342810;22;20130;-63
2023/01/27 04:33:03;;;;;;;3.20;0.70;;;;;;;;;;6342525;22;20145;-63
2023/01/27 04:35:29;;;;;;;2.95;0.68;;;;;;;;;;6341495;22;20137;-63
2023/01/27 04:37:55;;;;;;;2.03;0.65;;;;;;;;;;6342850;22;20156;-63
2023/01/27 04:40:21;;;;;;;5.88;1.30;;;;;;;;;;6342728;22;20221;-63
2023/01/27 04:42:47;;;;;;;0.98;0.60;;;;;;;;;;6342508;22;20146;-63
2023/01/27 04:45:14;;;;;;;2.17;0.70;;;;;;;;;;6342097;22;20226;-63
2023/01/27 04:47:40;;;;;;;1.10;0.60;;;;;;;;;;6342455;22;20572;-63
2023/01/27 04:50:06;;;;;;;1.77;0.70;;;;;;;;;;6342616;22;20212;-63
2023/01/27 04:52:32;;;;;;;1.77;0.50;;;;;;;;;;6342766;22;20153;-62
2023/01/27 04:54:58;;;;;;;2.55;0.63;;;;;;;;;;6342485;22;20494;-61
2023/01/27 04:57:24;;;;;;;2.55;0.50;;;;;;;;;;6342877;22;20146;-61
2023/01/27 04:59:50;;;;;;;2.25;0.52;;;;;;;;;;6342705;22;20468;-62
2023/01/27 05:02:16;;;;;;;1.88;0.52;;;;;;;;;;6342817;22;20170;-61
2023/01/27 05:04:42;;;;;;;2.53;0.82;;;;;;;;;;6342671;22;20573;-60
2023/01/27 05:07:08;;;;;;;1.55;0.60;;;;;;;;;;6342641;22;20533;-63
2023/01/27 05:09:34;;;;;;;1.65;0.50;;;;;;;;;;6342231;22;20213;-63
2023/01/27 05:12:00;;;;;;;1.50;0.50;;;;;;;;;;6341542;22;20180;-62
2023/01/27 05:14:26;;;;;;;1.15;0.52;;;;;;;;;;6342248;22;20146;-61
2023/01/27 05:16:52;;;;;;;1.65;0.50;;;;;;;;;;6341923;22;20142;-63
2023/01/27 05:19:18;;;;;;;0.82;0.50;;;;;;;;;;6342590;22;20139;-61
2023/01/27 05:21:44;;;;;;;1.20;0.57;;;;;;;;;;6341852;22;20146;-63
2023/01/27 05:24:10;;;;;;;0.98;0.63;;;;;;;;;;6342562;22;20410;-64
2023/01/27 05:26:36;;;;;;;5.65;0.65;;;;;;;;;;6341888;22;20205;-63
2023/01/27 05:29:02;;;;;;;1.70;0.50;;;;;;;;;;6342097;22;20534;-63
2023/01/27 05:31:33;;;;;;;4.20;0.75;;;;;;;;;;6341734;22;20610;-63
2023/01/27 05:33:59;;;;;;;2.95;0.77;;;;;;;;;;6342974;22;20233;-63
2023/01/27 05:36:26;;;;;;;5.78;1.05;;;;;;;;;;6341992;22;20298;-63
2023/01/27 05:38:53;;;;;;;1.15;0.70;;;;;;;;;;6341977;22;20554;-61
2023/01/27 05:41:19;;;;;;;2.70;0.77;;;;;;;;;;6342270;22;20146;-63
2023/01/27 05:43:46;;;;;;;1.42;0.50;;;;;;;;;;6341732;22;20565;-63
2023/01/27 05:46:17;;;;;;;3.20;0.70;;;;;;;;;;6342067;22;20162;-63
2023/01/27 05:48:44;;;;;;;4.50;0.60;;;;;;;;;;6342355;22;20201;-63
2023/01/27 05:51:11;;;;;;;5.90;0.90;;;;;;;;;;6367630;22;20142;-62
2023/01/27 05:53:37;;;;;;;2.47;0.80;;;;;;;;;;6342082;22;20148;-63
2023/01/27 05:56:04;;;;;;;1.85;0.70;;;;;;;;;;6342158;22;20209;-62
2023/01/27 05:58:30;;;;;;;3.42;0.70;;;;;;;;;;6341867;22;20453;-63
2023/01/27 06:00:56;;;;;;;3.00;0.70;;;;;;;;;;6341629;22;20157;-63
2023/01/27 06:03:22;;;;;;;3.35;0.80;;;;;;;;;;6342721;22;20177;-63
2023/01/27 06:05:53;;;;;;;0.95;0.60;;;;;;;;;;6341794;22;20163;-63
2023/01/27 06:08:19;;;;;;;1.70;0.55;;;;;;;;;;6341487;22;20161;-61
2023/01/27 06:10:45;;;;;;;1.70;0.68;;;;;;;;;;6342197;22;20545;-60
2023/01/27 06:13:11;;;;;;;1.95;0.65;;;;;;;;;;6341987;22;20146;-61
2023/01/27 06:15:39;;;;;;;2.70;0.60;;;;;;;;;;6341996;22;20212;-62
2023/01/27 06:18:06;;;;;;;1.50;0.40;;;;;;;;;;6342001;22;20146;-63
2023/01/27 06:20:32;;;;;;;2.35;0.50;;;;;;;;;;6342062;22;20142;-63
2023/01/27 06:23:00;;;;;;;1.58;0.60;;;;;;;;;;6341400;22;20180;-63
2023/01/27 06:25:26;;;;;;;3.00;0.80;;;;;;;;;;6341771;22;20170;-61
2023/01/27 06:27:56;;;;;;;1.33;0.60;;;;;;;;;;6341862;22;20418;-62
2023/01/27 06:30:22;;;;;;;3.03;0.73;;;;;;;;;;6342017;22;20474;-62
2023/01/27 06:32:48;;;;;;;1.92;0.70;;;;;;;;;;6341250;22;20138;-61
2023/01/27 06:35:13;;;;;;;4.60;1.00;;;;;;;;;;6341847;22;20174;-62
2023/01/27 06:37:39;;;;;;;2.28;0.55;;;;;;;;;;6341568;22;20153;-61
2023/01/27 06:40:06;;;;;;;2.72;0.60;;;;;;;;;;6342078;22;20181;-63
2023/01/27 06:42:32;;;;;;;2.50;0.70;;;;;;;;;;6341186;22;20184;-62
2023/01/27 06:44:58;;;;;;;0.98;0.60;;;;;;;;;;6355435;22;20166;-63
2023/01/27 06:47:24;;;;;;;4.70;0.70;;;;;;;;;;6365090;22;20162;-63
2023/01/27 06:49:49;;;;;;;2.25;0.60;;;;;;;;;;6364310;22;20156;-63
2023/01/27 06:52:15;;;;;;;1.17;0.50;;;;;;;;;;6353802;22;20146;-63
2023/01/27 06:54:41;;;;;;;2.65;1.10;;;;;;;;;;6354660;22;20634;-61
2023/01/27 06:57:10;;;;;;;1.65;0.65;;;;;;;;;;6349156;22;20225;-63
2023/01/27 06:59:37;;;;;;;2.05;0.55;;;;;;;;;;6349008;22;20147;-64
2023/01/27 07:02:03;;;;;;;1.08;0.50;;;;;;;;;;6344790;22;20542;-61
2023/01/27 07:04:29;;;;;;;1.02;0.70;;;;;;;;;;6341908;22;20142;-63
2023/01/27 07:06:54;;;;;;;2.05;0.60;;;;;;;;;;6341403;22;20168;-62
2023/01/27 07:09:20;;;;;;;2.35;0.57;;;;;;;;;;6341735;22;20138;-62
2023/01/27 07:11:47;;;;;;;1.92;0.60;;;;;;;;;;6341662;22;20138;-63
2023/01/27 07:14:13;;;;;;;2.92;0.50;;;;;;;;;;6341513;22;20149;-63
2023/01/27 07:16:39;;;;;;;2.20;0.60;;;;;;;;;;6341334;22;20292;-63
2023/01/27 07:19:05;;;;;;;2.17;0.47;;;;;;;;;;6341881;22;20149;-63
2023/01/27 07:21:31;;;;;;;3.28;0.73;;;;;;;;;;6340574;22;20558;-62
2023/01/27 07:23:56;;;;;;;2.40;0.52;;;;;;;;;;6342821;22;20471;-63
2023/01/27 07:26:22;;;;;;;2.72;0.60;;;;;;;;;;6342027;22;20177;-63
2023/01/27 07:28:48;;;;;;;2.38;0.60;;;;;;;;;;6341732;22;20538;-63
2023/01/27 07:31:14;;;;;;;1.83;0.63;;;;;;;;;;6341528;22;20156;-64
2023/01/27 07:33:41;;;;;;;1.17;0.77;;;;;;;;;;6341535;22;20200;-63
2023/01/27 07:36:07;;;;;;;2.70;0.70;;;;;;;;;;6341571;22;20229;-63
2023/01/27 07:38:33;;;;;;;2.35;0.70;;;;;;;;;;6340987;22;20138;-63
2023/01/27 07:41:03;;;;;;;2.95;0.50;;;;;;;;;;6341304;22;20151;-63
2023/01/27 07:43:28;;;;;;;1.10;0.60;;;;;;;;;;6340856;22;20537;-61
2023/01/27 07:45:56;;;;;;;2.38;0.50;;;;;;;;;;6341191;22;20173;-61
2023/01/27 07:48:22;;;;;;;1.45;0.40;;;;;;;;;;6341203;22;20152;-61
2023/01/27 07:50:48;;;;;;;0.85;0.38;;;;;;;;;;6341043;22;20170;-63
2023/01/27 07:53:14;;;;;;;1.15;0.50;;;;;;;;;;6341367;22;20196;-61
2023/01/27 07:55:40;;;;;;;1.58;0.45;;;;;;;;;;6341681;22;20260;-63
2023/01/27 07:58:06;;;;;;;3.22;0.60;;;;;;;;;;6341101;22;20158;-62
2023/01/27 08:00:32;;;;;;;1.67;0.70;;;;;;;;;;6341266;22;20150;-63
2023/01/27 08:02:59;;;;;;;2.67;0.60;;;;;;;;;;6341602;22;20138;-63
2023/01/27 08:05:25;;;;;;;1.20;0.55;;;;;;;;;;6341233;22;20279;-64
2023/01/27 08:07:53;;;;;;;1.08;0.65;;;;;;;;;;6340921;22;20142;-63
2023/01/27 08:10:19;;;;;;;2.33;0.50;;;;;;;;;;6340747;22;20199;-63
2023/01/27 08:12:45;;;;;;;2.22;0.50;;;;;;;;;;6340917;22;20199;-64
2023/01/27 08:15:11;;;;;;;1.67;0.50;;;;;;;;;;6340587;22;20143;-63
2023/01/27 08:17:37;;;;;;;3.58;0.82;;;;;;;;;;6340763;22;20487;-63
2023/01/27 08:20:04;;;;;;;3.50;0.73;;;;;;;;;;6341096;22;20142;-59
2023/01/27 08:22:30;;;;;;;1.98;0.70;;;;;;;;;;6340806;22;20172;-63
2023/01/27 08:24:56;;;;;;;0.95;0.60;;;;;;;;;;6340796;22;20209;-63
2023/01/27 08:27:22;;;;;;;3.22;0.88;;;;;;;;;;6340513;22;20134;-63
2023/01/27 08:29:48;;;;;;;2.38;0.63;;;;;;;;;;6341143;22;20154;-63
2023/01/27 08:32:15;;;;;;;2.75;0.75;;;;;;;;;;6341302;22;20214;-62
2023/01/27 08:34:41;;;;;;;3.60;0.63;;;;;;;;;;6342516;22;20188;-62
2023/01/27 08:37:07;;;;;;;2.80;0.70;;;;;;;;;;6343021;22;20556;-63
2023/01/27 08:39:35;;;;;;;1.95;0.70;;;;;;;;;;6342679;22;20142;-63
2023/01/27 08:42:01;;;;;;;1.25;0.50;;;;;;;;;;6342284;22;20484;-63
2023/01/27 08:44:27;;;;;;;5.03;1.00;;;;;;;;;;6342221;22;20166;-63
2023/01/27 08:46:54;;;;;;;2.85;0.60;;;;;;;;;;6342670;22;20408;-63
2023/01/27 08:49:20;;;;;;;3.47;0.60;;;;;;;;;;6341628;22;20168;-63
2023/01/27 08:51:46;;;;;;;3.55;0.63;;;;;;;;;;6342268;22;20521;-63
2023/01/27 08:54:12;;;;;;;2.17;0.73;;;;;;;;;;6342402;22;20558;-63
2023/01/27 08:56:38;;;;;;;2.13;0.77;;;;;;;;;;6342145;22;20138;-62
2023/01/27 08:59:04;;;;;;;4.00;0.70;;;;;;;;;;6342350;22;20153;-62
2023/01/27 09:01:30;;;;;;;3.40;0.60;;;;;;;;;;6343209;22;20243;-63
2023/01/27 09:03:56;;;;;;;3.47;0.70;;;;;;;;;;6342436;22;20158;-62
2023/01/27 09:06:22;;;;;;;1.27;0.50;;;;;;;;;;6342867;22;20166;-62
2023/01/27 09:09:07;;;;;;;1.05;0.55;;;;;;;;;;6342442;22;20217;-64
2023/01/27 09:11:33;;;;;;;1.25;0.50;;;;;;;;;;6342727;22;20142;-62
2023/01/27 09:13:59;;;;;;;2.05;0.50;;;;;;;;;;6342483;22;20199;-63
2023/01/27 09:16:25;;;;;;;0.73;0.40;;;;;;;;;;6342336;22;20640;-62
2023/01/27 09:18:51;;;;;;;1.77;0.77;;;;;;;;;;6342409;22;20150;-62
2023/01/27 09:21:17;;;;;;;1.30;0.68;;;;;;;;;;6342140;22;20192;-62
2023/01/27 09:23:44;;;;;;;2.72;0.80;;;;;;;;;;6341820;22;20245;-62
2023/01/27 09:26:09;;;;;;;1.95;0.40;;;;;;;;;;6342433;22;20180;-62
2023/01/27 09:28:35;;;;;;;3.00;0.70;;;;;;;;;;6342247;22;20441;-62
2023/01/27 09:31:01;;;;;;;0.77;0.40;;;;;;;;;;6341914;22;20526;-62
2023/01/27 09:33:27;;;;;;;1.48;0.40;;;;;;;;;;6341623;22;20183;-62
2023/01/27 09:35:56;;;;;;;1.42;0.50;;;;;;;;;;6342184;22;20145;-62
2023/01/27 09:38:23;;;;;;;3.35;0.40;;;;;;;;;;6342211;22;20146;-62
2023/01/27 09:41:09;;;;;;;3.42;0.70;;;;;;;;;;6341131;22;20211;-63
2023/01/27 09:43:45;;;;;;;2.38;0.60;;;;;;;;;;6320240;22;20488;-63
2023/01/27 09:46:17;;;;;;;2.85;0.70;;;;;;;;;;6342142;22;20174;-63
2023/01/27 09:48:52;;;;;;;6.20;0.88;;;;;;;;;;6342179;22;20143;-64
2023/01/27 09:51:18;;;;;;;4.72;0.88;;;;;;;;;;6342320;22;20145;-63
2023/01/27 09:53:50;;;;;;;2.20;0.57;;;;;;;;;;6342180;22;20139;-63
2023/01/27 09:56:31;;;;;;;4.32;0.90;;;;;;;;;;6341898;22;20142;-63
2023/01/27 09:59:06;;;;;;;2.35;0.57;;;;;;;;;;6342262;22;20130;-64
2023/01/27 10:01:51;;;;;;;2.65;1.30;;;;;;;;;;6342140;22;20133;-63
2023/01/27 10:04:22;;;;;;;3.35;1.20;;;;;;;;;;6341972;22;20418;-64
2023/01/27 10:07:07;;;;;;;0.95;0.50;;;;;;;;;;6341890;22;20177;-62
2023/01/27 10:09:37;;;;;;;1.88;0.40;;;;;;;;;;6342107;22;20138;-60
2023/01/27 10:12:06;;;;;;;3.30;0.70;;;;;;;;;;6342072;22;20448;-63
2023/01/27 10:14:40;;;;;;;2.78;0.60;;;;;;;;;;6341814;22;20142;-64
2023/01/27 10:17:06;;;;;;;2.20;0.90;;;;;;;;;;6341975;22;20170;-66
2023/01/27 10:19:47;;;;;;;4.10;0.93;;;;;;;;;;6341922;22;20146;-64
2023/01/27 10:22:17;;;;;;;4.57;1.00;;;;;;;;;;6341711;22;20158;-64
2023/01/27 10:24:55;;;;;;;3.40;1.17;;;;;;;;;;6341611;22;20138;-62
2023/01/27 10:27:22;;;;;;;0.82;0.40;;;;;;;;;;6341875;22;20157;-63
2023/01/27 10:29:59;;;;;;;2.15;0.60;;;;;;;;;;6341729;22;20146;-62
2023/01/27 10:32:27;;;;;;;2.20;0.60;;;;;;;;;;6341487;22;20142;-64
2023/01/27 10:35:08;;;;;;;2.53;0.85;;;;;;;;;;6341362;22;20147;-64
2023/01/27 10:37:39;;;;;;;2.35;0.70;;;;;;;;;;6341858;22;20158;-62
2023/01/27 10:40:10;;;;;;;2.88;0.60;;;;;;;;;;6341648;22;20135;-62
2023/01/27 10:42:57;;;;;;;2.15;0.45;;;;;;;;;;6341784;22;20218;-62
2023/01/27 10:45:29;;;;;;;0.98;0.52;;;;;;;;;;6341411;22;20223;-63
2023/01/27 10:48:01;;;;;;;2.33;1.15;;;;;;;;;;6342041;22;20153;-64
2023/01/27 10:50:34;;;;;;;1.15;0.43;;;;;;;;;;6341422;22;20142;-64
2023/01/27 10:53:05;;;;;;;1.13;0.57;;;;;;;;;;6346456;22;20154;-64
2023/01/27 10:55:42;;;;;;;1.50;0.40;;;;;;;;;;6361745;22;20126;-64
2023/01/27 10:58:08;;;;;;;1.35;0.40;;;;;;;;;;6360285;22;20127;-64
2023/01/27 11:00:39;;;;;;;1.75;0.73;;;;;;;;;;6344059;22;20445;-64
2023/01/27 11:03:23;;;;;;;2.75;0.60;;;;;;;;;;6348057;22;20127;-64
2023/01/27 11:05:54;;;;;;;0.77;0.35;;;;;;;;;;6343362;22;20170;-63
2023/01/27 11:08:26;;;;;;;2.33;0.50;;;;;;;;;;6343515;22;20131;-62
2023/01/27 11:13:41;;;;;;;1.27;0.50;;;;;;;;;;6343647;22;20137;-62
2023/01/27 11:16:17;;;;;;;2.13;0.40;;;;;;;;;;6343144;22;20162;-61
2023/01/27 11:18:46;;;;;;;1.25;0.60;;;;;;;;;;6342536;22;20141;-62
2023/01/27 11:21:23;;;;;;;1.00;0.57;;;;;;;;;;6342687;22;20199;-62
2023/01/27 11:23:55;;;;;;;1.27;0.40;;;;;;;;;;6343490;22;20168;-64
2023/01/27 11:26:30;;;;;;;1.42;0.40;;;;;;;;;;6343456;22;20193;-63
2023/01/27 11:29:15;;;;;;;1.80;0.43;;;;;;;;;;6342556;22;20142;-63
2023/01/27 11:31:44;;;;;;;1.13;0.60;;;;;;;;;;6341408;22;20196;-63
2023/01/27 11:34:13;;;;;;;0.68;0.43;;;;;;;;;;6340506;22;20157;-64
2023/01/27 11:36:39;;;;;;;1.50;0.60;;;;;;;;;;6313187;22;20190;-61
2023/01/27 11:39:05;;;;;;;0.60;0.30;;;;;;;;;;6341341;22;20185;-62
2023/01/27 11:41:37;;;;;;;1.35;0.43;;;;;;;;;;6339959;22;20142;-63
2023/01/27 11:44:05;;;;;;;0.70;0.50;;;;;;;;;;6340318;22;20153;-63
2023/01/27 11:46:33;;;;;;;2.25;0.90;;;;;;;;;;6339791;22;20162;-62
2023/01/27 11:49:09;;;;;;;2.10;0.50;;;;;;;;;;6340549;22;20203;-61
2023/01/27 11:51:38;;;;;;;2.30;0.50;;;;;;;;;;6340499;22;20130;-66
2023/01/27 11:54:04;;;;;;;3.28;0.70;;;;;;;;;;6340721;22;20204;-62
2023/01/27 11:56:31;;;;;;;0.57;0.40;;;;;;;;;;6340072;22;20142;-62
2023/01/27 11:59:00;;;;;;;1.58;0.40;;;;;;;;;;6339790;22;20150;-62
2023/01/27 12:01:43;;;;;;;2.25;0.73;;;;;;;;;;6340149;22;20146;-62
2023/01/27 12:04:13;;;;;;;2.10;0.50;;;;;;;;;;6340262;22;20197;-61
2023/01/27 12:06:51;;;;;;;1.70;0.80;;;;;;;;;;6340308;22;20158;-59
2023/01/27 12:09:37;;;;;;;2.15;0.45;;;;;;;;;;6341818;22;20571;-61
2023/01/27 12:12:10;;;;;;;4.55;0.80;;;;;;;;;;6341657;22;20146;-62
2023/01/27 12:14:37;;;;;;;1.40;0.40;;;;;;;;;;6343177;22;20142;-63
2023/01/27 12:17:03;;;;;;;1.38;0.40;;;;;;;;;;6343167;22;20142;-61
2023/01/27 12:19:31;;;;;;;2.70;0.65;;;;;;;;;;6343259;22;20153;-63
2023/01/27 12:22:00;;;;;;;1.67;0.50;;;;;;;;;;6342663;22;20544;-60
2023/01/27 12:24:34;;;;;;;1.27;0.43;;;;;;;;;;6342768;22;20142;-63
2023/01/27 12:27:00;;;;;;;1.60;0.52;;;;;;;;;;6343074;22;20161;-61
2023/01/27 12:29:31;;;;;;;1.75;0.52;;;;;;;;;;6343104;22;20198;-60
2023/01/27 12:31:58;;;;;;;1.92;0.50;;;;;;;;;;6342922;22;20134;-61
2023/01/27 12:34:29;;;;;;;1.20;0.43;;;;;;;;;;6344165;22;20170;-63
2023/01/27 12:36:55;;;;;;;2.10;0.30;;;;;;;;;;6342890;22;20176;-62
2023/01/27 12:39:26;;;;;;;2.53;0.50;;;;;;;;;;6343100;22;20146;-60
2023/01/27 12:41:52;;;;;;;1.83;0.65;;;;;;;;;;6343462;22;20130;-62
2023/01/27 12:44:21;;;;;;;3.00;0.60;;;;;;;;;;6342912;22;20150;-62
2023/01/27 12:46:59;;;;;;;1.13;0.30;;;;;;;;;;6342663;22;20238;-61
2023/01/27 12:49:30;;;;;;;4.63;0.50;;;;;;;;;;6348765;22;20145;-62
2023/01/27 12:51:56;;;;;;;1.58;0.52;;;;;;;;;;6363853;22;20122;-63
2023/01/27 12:54:31;;;;;;;1.13;0.40;;;;;;;;;;6364431;22;20141;-62
2023/01/27 12:57:01;;;;;;;2.53;0.22;;;;;;;;;;6358132;22;20169;-62
2023/01/27 12:59:27;;;;;;;0.57;0.32;;;;;;;;;;6350810;22;20204;-63
2023/01/27 13:02:10;;;;;;;0.70;0.30;;;;;;;;;;6352407;22;20169;-63
2023/01/27 13:04:37;;;;;;;1.40;0.50;;;;;;;;;;6349991;22;20190;-63
2023/01/27 13:07:14;;;;;;;1.55;0.30;;;;;;;;;;6347658;22;20218;-63
2023/01/27 13:09:49;;;;;;;0.65;0.40;;;;;;;;;;6343358;22;20408;-62
2023/01/27 13:12:19;;;;;;;0.77;0.52;;;;;;;;;;6342726;22;20138;-61
2023/01/27 13:14:45;;;;;;;2.00;0.50;;;;;;;;;;6342869;22;20165;-60
2023/01/27 13:17:35;;;;;;;2.15;0.50;;;;;;;;;;6342395;22;20192;-62
2023/01/27 13:20:04;;;;;;;2.90;0.60;;;;;;;;;;6342115;22;20131;-60
2023/01/27 13:22:36;;;;;;;0.38;0.30;;;;;;;;;;6342323;22;20180;-64
2023/01/27 13:25:02;;;;;;;0.73;0.30;;;;;;;;;;6343145;22;20158;-61
2023/01/27 13:27:33;;;;;;;2.83;0.40;;;;;;;;;;6342368;22;20142;-63
2023/01/27 13:30:03;;;;;;;0.90;0.40;;;;;;;;;;6342456;22;20422;-62
2023/01/27 13:32:31;;;;;;;0.95;0.40;;;;;;;;;;6342184;22;20169;-62
2023/01/27 13:35:03;;;;;;;1.85;0.50;;;;;;;;;;6342371;22;20196;-61
2023/01/27 13:37:45;;;;;;;1.63;0.50;;;;;;;;;;6342898;22;20165;-62
2023/01/27 13:40:20;;;;;;;3.50;0.60;;;;;;;;;;6343559;22;20153;-64
2023/01/27 13:43:09;;;;;;;1.00;0.40;;;;;;;;;;6343991;22;20424;-64
2023/01/27 13:45:39;;;;;;;1.67;0.55;;;;;;;;;;6343542;22;20150;-63
2023/01/27 13:48:11;;;;;;;1.50;0.45;;;;;;;;;;6344027;22;20533;-62
2023/01/27 13:50:42;;;;;;;4.55;0.60;;;;;;;;;;6343567;22;20149;-62
2023/01/27 13:53:11;;;;;;;1.58;0.50;;;;;;;;;;6343334;22;20146;-63
2023/01/27 13:55:56;;;;;;;3.42;0.47;;;;;;;;;;6343924;22;20172;-62
2023/01/27 13:58:31;;;;;;;0.52;0.40;;;;;;;;;;6343524;22;20179;-64
2023/01/27 14:01:26;;;;;;;4.00;0.60;;;;;;;;;;6342825;22;20551;-63
2023/01/27 14:04:07;;;;;;;1.35;0.30;;;;;;;;;;6232925;22;20246;-63
2023/01/27 14:06:42;;;;;;;1.13;0.60;;;;;;;;;;6342830;22;20193;-63
2023/01/27 14:09:27;;;;;;;3.22;0.52;;;;;;;;;;6342995;22;20141;-62
2023/01/27 14:11:56;;;;;;;1.75;0.55;;;;;;;;;;6342717;22;20142;-61
2023/01/27 14:14:41;;;;;;;1.73;0.50;;;;;;;;;;6342736;22;20188;-63
2023/01/27 14:17:25;;;;;;;0.85;0.40;;;;;;;;;;6342442;22;20195;-62
2023/01/27 14:20:00;;;;;;;1.23;0.57;;;;;;;;;;6343376;22;20141;-62
2023/01/27 14:22:47;;;;;;;1.40;0.38;;;;;;;;;;6343179;22;20153;-62
2023/01/27 14:25:20;;;;;;;3.03;0.45;;;;;;;;;;6343051;22;20244;-64
2023/01/27 14:27:49;;;;;;;1.08;0.50;;;;;;;;;;6342145;22;20165;-62
2023/01/27 14:30:21;;;;;;;1.92;0.50;;;;;;;;;;6341712;22;20185;-61
2023/01/27 14:32:52;;;;;;;1.90;0.65;;;;;;;;;;6341127;22;20146;-61
2023/01/27 14:35:18;;;;;;;1.33;0.60;;;;;;;;;;6342015;22;20180;-63
2023/01/27 14:37:51;;;;;;;2.22;0.50;;;;;;;;;;6341852;22;20154;-63
2023/01/27 14:40:23;;;;;;;1.67;0.60;;;;;;;;;;6342459;22;20157;-63
2023/01/27 14:42:55;;;;;;;0.98;0.50;;;;;;;;;;6342096;22;20139;-62
2023/01/27 14:45:24;;;;;;;1.15;0.45;;;;;;;;;;6342453;22;20590;-62
2023/01/27 14:48:00;;;;;;;1.73;0.55;;;;;;;;;;6341921;22;20142;-63
2023/01/27 14:50:29;;;;;;;1.58;0.60;;;;;;;;;;6341900;22;20156;-63
2023/01/27 14:53:01;;;;;;;2.05;0.68;;;;;;;;;;6341635;22;20213;-63
2023/01/27 14:55:43;;;;;;;1.80;0.60;;;;;;;;;;6341418;22;20559;-63
2023/01/27 14:58:20;;;;;;;2.10;0.60;;;;;;;;;;6341826;22;20150;-62
2023/01/27 15:00:55;;;;;;;1.83;0.90;;;;;;;;;;6341725;22;20146;-62
2023/01/27 15:03:40;;;;;;;2.38;0.82;;;;;;;;;;6341604;22;20145;-63
2023/01/27 15:06:09;;;;;;;1.35;0.40;;;;;;;;;;6341355;22;20162;-62
2023/01/27 15:08:49;;;;;;;1.42;0.70;;;;;;;;;;6341043;22;20149;-61
2023/01/27 15:11:15;;;;;;;3.88;0.93;;;;;;;;;;6344723;22;20145;-62
2023/01/27 15:13:41;;;;;;;1.30;0.95;;;;;;;;;;6346114;22;20541;-62
2023/01/27 15:16:24;;;;;;;2.47;0.93;;;;;;;;;;6343220;22;20154;-62
2023/01/27 15:19:00;;;;;;;1.10;0.60;;;;;;;;;;6345687;22;20177;-62
2023/01/27 15:21:37;;;;;;;4.22;0.90;;;;;;;;;;6347317;22;20130;-62
2023/01/27 15:24:11;;;;;;;3.00;0.90;;;;;;;;;;6345485;22;20130;-62
2023/01/27 15:26:37;;;;;;;0.70;0.50;;;;;;;;;;6342430;22;20533;-62
2023/01/27 15:29:05;;;;;;;2.95;0.63;;;;;;;;;;6341840;22;20241;-62
2023/01/27 15:31:31;;;;;;;1.50;0.70;;;;;;;;;;6342089;22;20153;-59